SIA35H WSSS-EKCH
Flight info
| Callsign | SIA35H |
|---|---|
| Flight time | N/A |
| Altitude | 34000 |
| Route | VMR9B VMR B469 VPK M751 VKB A334 HTY W14 PUT L515 OBMOG M770 SADUS/N0498F380 M770 KAKID M875 GUGAL/N0493F400 M875 DI/N0493F380 N644 REGET/N0493F400 N644 LEMOD A909 RODAR M11 REBLO UM11 CRM UL746 ODERO DCT LUGEB DCT NARKA/N0484F430 DCT KELEL DCT BAREX DCT AGODU DCT AMROR/N0474F280 N983 ROE M743 TIDVU |
| Aircraft | A359/H-SDE1E2E3GHIJ1J2J3J5M1P2RWXYZ/LB1D1 |
Departure
| Time | N/A |
|---|---|
| Airport | Singapore Changi Airport (WSSS) |
Arrival
| Time | 2026-05-04 17:43 |
|---|---|
| Airport | Copenhagen Kastrup Airport (EKCH) |
| Time | Latitude | Longitude | Altitude | Speed | Heading |
|---|---|---|---|---|---|
| 2026-05-04 15:39 | 44.28317 | 27.56263 | 39887 ft | 451 kts | 303° |
| 2026-05-04 15:40 | 44.30277 | 27.52847 | 39888 ft | 451 kts | 303° |
| 2026-05-04 15:40 | 44.34193 | 27.46007 | 39888 ft | 451 kts | 303° |
| 2026-05-04 15:41 | 44.38118 | 27.39133 | 39890 ft | 455 kts | 303° |
| 2026-05-04 15:41 | 44.42090 | 27.32154 | 39890 ft | 462 kts | 303° |
| 2026-05-04 15:42 | 44.46122 | 27.25058 | 39889 ft | 469 kts | 303° |
| 2026-05-04 15:42 | 44.50213 | 27.17844 | 39890 ft | 477 kts | 303° |
| 2026-05-04 15:43 | 44.54366 | 27.10502 | 39889 ft | 484 kts | 303° |
| 2026-05-04 15:43 | 44.58574 | 27.03045 | 39889 ft | 491 kts | 303° |
| 2026-05-04 15:44 | 44.62837 | 26.95470 | 39889 ft | 498 kts | 303° |
| 2026-05-04 15:44 | 44.67147 | 26.87792 | 39888 ft | 502 kts | 303° |
| 2026-05-04 15:45 | 44.71465 | 26.80085 | 39888 ft | 502 kts | 303° |
| 2026-05-04 15:45 | 44.75775 | 26.72368 | 39888 ft | 501 kts | 303° |
| 2026-05-04 15:46 | 44.80075 | 26.64642 | 39888 ft | 501 kts | 303° |
| 2026-05-04 15:46 | 44.84371 | 26.56905 | 39888 ft | 501 kts | 303° |
| 2026-05-04 15:47 | 44.88658 | 26.49160 | 39887 ft | 501 kts | 303° |
| 2026-05-04 15:47 | 44.92943 | 26.41400 | 39888 ft | 501 kts | 303° |
| 2026-05-04 15:48 | 44.97220 | 26.33633 | 39888 ft | 501 kts | 303° |
| 2026-05-04 15:48 | 45.03628 | 26.21956 | 39887 ft | 501 kts | 303° |
| 2026-05-04 15:49 | 45.07890 | 26.14162 | 39888 ft | 501 kts | 303° |
| 2026-05-04 15:49 | 45.12149 | 26.06354 | 39888 ft | 501 kts | 302° |
| 2026-05-04 15:50 | 45.16402 | 25.98537 | 39888 ft | 501 kts | 302° |
| 2026-05-04 15:50 | 45.20648 | 25.90708 | 39888 ft | 501 kts | 302° |
| 2026-05-04 15:51 | 45.24887 | 25.82870 | 39888 ft | 501 kts | 302° |
| 2026-05-04 15:51 | 45.29122 | 25.75019 | 39888 ft | 501 kts | 302° |
| 2026-05-04 15:52 | 45.33353 | 25.67155 | 39888 ft | 501 kts | 302° |
| 2026-05-04 15:52 | 45.37576 | 25.59286 | 39888 ft | 500 kts | 302° |
| 2026-05-04 15:53 | 45.41794 | 25.51401 | 39887 ft | 500 kts | 302° |
| 2026-05-04 15:53 | 45.46005 | 25.43506 | 39886 ft | 500 kts | 302° |
| 2026-05-04 15:54 | 45.50208 | 25.35606 | 39888 ft | 501 kts | 302° |
| 2026-05-04 15:54 | 45.54380 | 25.27741 | 39889 ft | 500 kts | 302° |
| 2026-05-04 15:55 | 45.58576 | 25.19813 | 39891 ft | 501 kts | 302° |
| 2026-05-04 15:55 | 45.62764 | 25.11875 | 39888 ft | 500 kts | 302° |
| 2026-05-04 15:56 | 45.66945 | 25.03926 | 39887 ft | 500 kts | 302° |
| 2026-05-04 15:56 | 45.71117 | 24.95973 | 39887 ft | 500 kts | 302° |
| 2026-05-04 15:57 | 45.75286 | 24.88004 | 39888 ft | 500 kts | 302° |
| 2026-05-04 15:57 | 45.79450 | 24.80021 | 39888 ft | 500 kts | 302° |
| 2026-05-04 15:58 | 45.83607 | 24.72030 | 39888 ft | 500 kts | 302° |
| 2026-05-04 15:58 | 45.87755 | 24.64032 | 39887 ft | 500 kts | 301° |
| 2026-05-04 15:59 | 45.91928 | 24.55964 | 39888 ft | 500 kts | 301° |
| 2026-05-04 15:59 | 45.96068 | 24.47937 | 39887 ft | 500 kts | 301° |
| 2026-05-04 16:00 | 46.00203 | 24.39898 | 39887 ft | 500 kts | 301° |
| 2026-05-04 16:00 | 46.04330 | 24.31852 | 39884 ft | 500 kts | 301° |
| 2026-05-04 16:01 | 46.08451 | 24.23790 | 39888 ft | 500 kts | 301° |
| 2026-05-04 16:01 | 46.12568 | 24.15716 | 39888 ft | 500 kts | 301° |
| 2026-05-04 16:02 | 46.16673 | 24.07642 | 39888 ft | 499 kts | 301° |
| 2026-05-04 16:03 | 46.22827 | 23.95494 | 39888 ft | 500 kts | 301° |
| 2026-05-04 16:03 | 46.26922 | 23.87383 | 39888 ft | 500 kts | 301° |
| 2026-05-04 16:04 | 46.31011 | 23.79260 | 39889 ft | 499 kts | 301° |
| 2026-05-04 16:04 | 46.37129 | 23.67059 | 39888 ft | 499 kts | 301° |
| 2026-05-04 16:05 | 46.41200 | 23.58911 | 39887 ft | 499 kts | 301° |
| 2026-05-04 16:06 | 46.47297 | 23.46667 | 39886 ft | 499 kts | 300° |
| 2026-05-04 16:07 | 46.55403 | 23.30299 | 39886 ft | 499 kts | 301° |
| 2026-05-04 16:08 | 46.63485 | 23.13884 | 39889 ft | 499 kts | 300° |
| 2026-05-04 16:09 | 46.73525 | 22.93361 | 39907 ft | 499 kts | 300° |
| 2026-05-04 16:10 | 46.81549 | 22.76846 | 39906 ft | 499 kts | 300° |
| 2026-05-04 16:11 | 46.89553 | 22.60277 | 39906 ft | 499 kts | 300° |
| 2026-05-04 16:12 | 47.01502 | 22.35351 | 39905 ft | 498 kts | 300° |
| 2026-05-04 16:13 | 47.09437 | 22.18676 | 39907 ft | 498 kts | 300° |
| 2026-05-04 16:14 | 47.17345 | 22.01957 | 39906 ft | 498 kts | 300° |
| 2026-05-04 16:16 | 47.28887 | 21.82958 | 39910 ft | 514 kts | 325° |
| 2026-05-04 16:17 | 47.44725 | 21.70400 | 39906 ft | 518 kts | 328° |
| 2026-05-04 16:18 | 47.57457 | 21.60429 | 39906 ft | 517 kts | 328° |
| 2026-05-04 16:19 | 47.73327 | 21.47840 | 39906 ft | 517 kts | 328° |
| 2026-05-04 16:20 | 47.88116 | 21.36036 | 39906 ft | 517 kts | 328° |
| 2026-05-04 16:22 | 48.03957 | 21.23306 | 39907 ft | 517 kts | 328° |
| 2026-05-04 16:23 | 48.22944 | 21.07930 | 39907 ft | 517 kts | 327° |
| 2026-05-04 16:25 | 48.41908 | 20.92441 | 39906 ft | 517 kts | 327° |
| 2026-05-04 16:26 | 48.64001 | 20.74228 | 39906 ft | 517 kts | 327° |
| 2026-05-04 16:28 | 48.79756 | 20.61128 | 39906 ft | 517 kts | 327° |
| 2026-05-04 16:29 | 49.01791 | 20.42646 | 39906 ft | 517 kts | 327° |
| 2026-05-04 16:31 | 49.17508 | 20.29348 | 39907 ft | 517 kts | 327° |
| 2026-05-04 16:32 | 49.36334 | 20.13251 | 39907 ft | 516 kts | 326° |
| 2026-05-04 16:33 | 49.48784 | 20.02251 | 39906 ft | 516 kts | 326° |
| 2026-05-04 16:34 | 49.58125 | 19.93983 | 39907 ft | 516 kts | 326° |
| 2026-05-04 16:35 | 49.76789 | 19.77377 | 39906 ft | 516 kts | 326° |
| 2026-05-04 16:36 | 49.86148 | 19.68993 | 39905 ft | 516 kts | 326° |
| 2026-05-04 16:37 | 49.95463 | 19.60610 | 39908 ft | 516 kts | 326° |
| 2026-05-04 16:38 | 50.07866 | 19.49389 | 39907 ft | 516 kts | 326° |
| 2026-05-04 16:39 | 50.23357 | 19.35279 | 39906 ft | 516 kts | 326° |
| 2026-05-04 16:40 | 50.35735 | 19.23928 | 39906 ft | 516 kts | 325° |
| 2026-05-04 16:41 | 50.51190 | 19.09655 | 39906 ft | 516 kts | 325° |
| 2026-05-04 16:43 | 50.66623 | 18.95293 | 39907 ft | 515 kts | 325° |
| 2026-05-04 16:43 | 50.75915 | 18.86593 | 39906 ft | 515 kts | 325° |
| 2026-05-04 16:45 | 50.94463 | 18.69471 | 39906 ft | 518 kts | 329° |
| 2026-05-04 16:46 | 51.10697 | 18.56857 | 39907 ft | 518 kts | 329° |
| 2026-05-04 16:47 | 51.23518 | 18.46541 | 39906 ft | 518 kts | 329° |
| 2026-05-04 16:48 | 51.36363 | 18.36115 | 39906 ft | 518 kts | 329° |
| 2026-05-04 16:49 | 51.49199 | 18.25640 | 39906 ft | 518 kts | 329° |
| 2026-05-04 16:50 | 51.62020 | 18.15110 | 39906 ft | 517 kts | 329° |
| 2026-05-04 16:51 | 51.71674 | 18.07136 | 39906 ft | 517 kts | 329° |
| 2026-05-04 16:52 | 51.84483 | 17.96497 | 39906 ft | 517 kts | 329° |
| 2026-05-04 16:53 | 51.94078 | 17.88483 | 39906 ft | 517 kts | 329° |
| 2026-05-04 16:54 | 52.06818 | 17.77781 | 39906 ft | 517 kts | 328° |
| 2026-05-04 16:55 | 52.25976 | 17.61556 | 39906 ft | 517 kts | 328° |
| 2026-05-04 16:56 | 52.40885 | 17.48821 | 39906 ft | 517 kts | 328° |
| 2026-05-04 16:57 | 52.50487 | 17.40566 | 39906 ft | 517 kts | 328° |
| 2026-05-04 16:58 | 52.63223 | 17.29554 | 39926 ft | 517 kts | 328° |
| 2026-05-04 17:00 | 52.82337 | 17.12889 | 39935 ft | 517 kts | 328° |
| 2026-05-04 17:01 | 52.98213 | 16.98919 | 39935 ft | 517 kts | 328° |
| 2026-05-04 17:02 | 53.10899 | 16.87673 | 39932 ft | 517 kts | 328° |
| 2026-05-04 17:03 | 53.20363 | 16.79232 | 39935 ft | 517 kts | 328° |
| 2026-05-04 17:03 | 53.29862 | 16.70718 | 39934 ft | 517 kts | 328° |
| 2026-05-04 17:04 | 53.42521 | 16.59304 | 39935 ft | 516 kts | 328° |
| 2026-05-04 17:05 | 53.55160 | 16.47830 | 39934 ft | 516 kts | 327° |
| 2026-05-04 17:06 | 53.64679 | 16.39136 | 39933 ft | 516 kts | 327° |
| 2026-05-04 17:07 | 53.73077 | 16.31430 | 39935 ft | 516 kts | 327° |
| 2026-05-04 17:07 | 53.80411 | 16.24670 | 39932 ft | 516 kts | 327° |
| 2026-05-04 17:08 | 53.89904 | 16.15880 | 39933 ft | 516 kts | 327° |
| 2026-05-04 17:09 | 53.96189 | 16.10015 | 39934 ft | 516 kts | 326° |
| 2026-05-04 17:09 | 54.02304 | 16.03681 | 39935 ft | 514 kts | 323° |
| 2026-05-04 17:10 | 54.17414 | 15.87408 | 39933 ft | 514 kts | 324° |
| 2026-05-04 17:11 | 54.23485 | 15.80944 | 39934 ft | 514 kts | 324° |
| 2026-05-04 17:12 | 54.32584 | 15.71226 | 39934 ft | 514 kts | 323° |
| 2026-05-04 17:13 | 54.47700 | 15.54956 | 38432 ft | 514 kts | 323° |
| 2026-05-04 17:14 | 54.56842 | 15.45035 | 35917 ft | 520 kts | 323° |
| 2026-05-04 17:14 | 54.59909 | 15.41699 | 35070 ft | 521 kts | 323° |
| 2026-05-04 17:14 | 54.66052 | 15.34998 | 33358 ft | 523 kts | 323° |
| 2026-05-04 17:15 | 54.69128 | 15.31633 | 32547 ft | 522 kts | 323° |
| 2026-05-04 17:15 | 54.75103 | 15.25100 | 31022 ft | 491 kts | 323° |
| 2026-05-04 17:16 | 54.80713 | 15.18942 | 29983 ft | 471 kts | 323° |
| 2026-05-04 17:16 | 54.88711 | 15.09503 | 28379 ft | 455 kts | 313° |
| 2026-05-04 17:17 | 54.90875 | 15.05494 | 27392 ft | 455 kts | 302° |
| 2026-05-04 17:17 | 54.95662 | 14.91406 | 24774 ft | 443 kts | 293° |
| 2026-05-04 17:18 | 54.97142 | 14.86749 | 23920 ft | 431 kts | 293° |
| 2026-05-04 17:18 | 54.99936 | 14.77955 | 23038 ft | 399 kts | 292° |
| 2026-05-04 17:19 | 55.02574 | 14.69573 | 22146 ft | 391 kts | 292° |
| 2026-05-04 17:19 | 55.05159 | 14.61342 | 21265 ft | 383 kts | 292° |
| 2026-05-04 17:20 | 55.07693 | 14.53253 | 20377 ft | 377 kts | 292° |
| 2026-05-04 17:20 | 55.10179 | 14.45296 | 19540 ft | 370 kts | 291° |
| 2026-05-04 17:20 | 55.11406 | 14.41358 | 19099 ft | 367 kts | 291° |
| 2026-05-04 17:21 | 55.13824 | 14.33580 | 18247 ft | 362 kts | 291° |
| 2026-05-04 17:21 | 55.16201 | 14.25910 | 17422 ft | 356 kts | 291° |
| 2026-05-04 17:22 | 55.17374 | 14.22115 | 16998 ft | 354 kts | 291° |
| 2026-05-04 17:22 | 55.18542 | 14.18328 | 16574 ft | 352 kts | 291° |
| 2026-05-04 17:23 | 55.21996 | 14.07104 | 15398 ft | 346 kts | 291° |
| 2026-05-04 17:23 | 55.23132 | 14.03399 | 15003 ft | 344 kts | 291° |
| 2026-05-04 17:23 | 55.25395 | 13.96006 | 14180 ft | 340 kts | 291° |
| 2026-05-04 17:24 | 55.26506 | 13.92365 | 13774 ft | 337 kts | 290° |
| 2026-05-04 17:24 | 55.29792 | 13.81569 | 12587 ft | 331 kts | 290° |
| 2026-05-04 17:25 | 55.30872 | 13.78013 | 12196 ft | 329 kts | 290° |
| 2026-05-04 17:25 | 55.32728 | 13.70735 | 11847 ft | 327 kts | 279° |
| 2026-05-04 17:26 | 55.33934 | 13.63224 | 11306 ft | 312 kts | 277° |
| 2026-05-04 17:26 | 55.35503 | 13.52628 | 10161 ft | 282 kts | 276° |
| 2026-05-04 17:27 | 55.36452 | 13.46015 | 9411 ft | 277 kts | 275° |
| 2026-05-04 17:27 | 55.37383 | 13.39481 | 8660 ft | 273 kts | 277° |
| 2026-05-04 17:28 | 55.38290 | 13.33067 | 7973 ft | 269 kts | 280° |
| 2026-05-04 17:29 | 55.39647 | 13.23523 | 7064 ft | 266 kts | 282° |
| 2026-05-04 17:29 | 55.40836 | 13.15132 | 6261 ft | 263 kts | 282° |
| 2026-05-04 17:30 | 55.42130 | 13.05918 | 5356 ft | 256 kts | 282° |
| 2026-05-04 17:31 | 55.42967 | 12.99857 | 4762 ft | 253 kts | 280° |
| 2026-05-04 17:31 | 55.42218 | 12.90865 | 3997 ft | 248 kts | 255° |
| 2026-05-04 17:32 | 55.41367 | 12.84978 | 3996 ft | 248 kts | 255° |
| 2026-05-04 17:33 | 55.40983 | 12.76014 | 3990 ft | 250 kts | 284° |
| 2026-05-04 17:33 | 55.41800 | 12.73318 | 3984 ft | 253 kts | 310° |
| 2026-05-04 17:34 | 55.46637 | 12.72987 | 3992 ft | 263 kts | 34° |
| 2026-05-04 17:34 | 55.48209 | 12.74644 | 3988 ft | 264 kts | 28° |
| 2026-05-04 17:35 | 55.53047 | 12.79296 | 3986 ft | 264 kts | 27° |
| 2026-05-04 17:35 | 55.56253 | 12.82370 | 3989 ft | 264 kts | 27° |
| 2026-05-04 17:35 | 55.57885 | 12.83938 | 3994 ft | 261 kts | 27° |
| 2026-05-04 17:36 | 55.59431 | 12.85425 | 3979 ft | 246 kts | 27° |
| 2026-05-04 17:36 | 55.60935 | 12.86805 | 3983 ft | 243 kts | 23° |
| 2026-05-04 17:36 | 55.62470 | 12.87939 | 3987 ft | 242 kts | 20° |
| 2026-05-04 17:36 | 55.64039 | 12.89034 | 3991 ft | 242 kts | 20° |
| 2026-05-04 17:37 | 55.65608 | 12.90122 | 3985 ft | 242 kts | 20° |
| 2026-05-04 17:37 | 55.67178 | 12.91210 | 3990 ft | 242 kts | 20° |
| 2026-05-04 17:37 | 55.68749 | 12.92300 | 3985 ft | 242 kts | 20° |
| 2026-05-04 17:37 | 55.70318 | 12.93389 | 3989 ft | 242 kts | 20° |
| 2026-05-04 17:38 | 55.71891 | 12.94459 | 3985 ft | 242 kts | 17° |
| 2026-05-04 17:38 | 55.73516 | 12.94696 | 3979 ft | 227 kts | 346° |
| 2026-05-04 17:38 | 55.74826 | 12.93499 | 3969 ft | 203 kts | 311° |
| 2026-05-04 17:38 | 55.75434 | 12.91425 | 3967 ft | 186 kts | 275° |
| 2026-05-04 17:39 | 55.75077 | 12.86935 | 3391 ft | 186 kts | 250° |
| 2026-05-04 17:39 | 55.74389 | 12.85031 | 3111 ft | 183 kts | 223° |
| 2026-05-04 17:39 | 55.73403 | 12.83615 | 2842 ft | 181 kts | 218° |
| 2026-05-04 17:40 | 55.72439 | 12.82185 | 2581 ft | 180 kts | 223° |
| 2026-05-04 17:40 | 55.71519 | 12.80699 | 2366 ft | 178 kts | 222° |
| 2026-05-04 17:40 | 55.70589 | 12.79258 | 2116 ft | 178 kts | 221° |
| 2026-05-04 17:40 | 55.69658 | 12.77814 | 1869 ft | 178 kts | 222° |
| 2026-05-04 17:41 | 55.68738 | 12.76380 | 1671 ft | 173 kts | 222° |
| 2026-05-04 17:41 | 55.67852 | 12.75003 | 1414 ft | 165 kts | 222° |
| 2026-05-04 17:41 | 55.67019 | 12.73709 | 1201 ft | 155 kts | 222° |
| 2026-05-04 17:41 | 55.66233 | 12.72487 | 1004 ft | 146 kts | 222° |
| 2026-05-04 17:42 | 55.65481 | 12.71319 | 802 ft | 139 kts | 222° |
| 2026-05-04 17:42 | 55.64783 | 12.70235 | 625 ft | 129 kts | 222° |
| 2026-05-04 17:42 | 55.64128 | 12.69216 | 459 ft | 123 kts | 222° |
| 2026-05-04 17:42 | 55.63479 | 12.68207 | 332 ft | 126 kts | 221° |
| 2026-05-04 17:43 | 55.62824 | 12.67191 | 139 ft | 125 kts | 221° |
| 2026-05-04 17:43 | 55.62172 | 12.66181 | 29 ft | 121 kts | 221° |
| 2026-05-04 17:43 | 55.61616 | 12.65324 | 25 ft | 83 kts | 222° |
| 2026-05-04 17:43 | 55.61384 | 12.64966 | 29 ft | 18 kts | 224° |
| 2026-05-04 17:44 | 55.61297 | 12.64773 | 29 ft | 20 kts | 240° |
| 2026-05-04 17:44 | 55.61242 | 12.64545 | 29 ft | 22 kts | 249° |
| 2026-05-04 17:44 | 55.61195 | 12.64310 | 24 ft | 14 kts | 251° |
| 2026-05-04 17:44 | 55.61198 | 12.64167 | 22 ft | 5 kts | 296° |
| 2026-05-04 17:45 | 55.61229 | 12.64118 | 22 ft | 6 kts | 334° |
| 2026-05-04 17:45 | 55.61276 | 12.64120 | 25 ft | 8 kts | 17° |
| 2026-05-04 17:45 | 55.61331 | 12.64170 | 23 ft | 10 kts | 31° |
| 2026-05-04 17:45 | 55.61401 | 12.64250 | 22 ft | 13 kts | 33° |
| 2026-05-04 17:46 | 55.61482 | 12.64344 | 26 ft | 15 kts | 33° |
| 2026-05-04 17:46 | 55.61576 | 12.64453 | 24 ft | 18 kts | 33° |
| 2026-05-04 17:46 | 55.61673 | 12.64565 | 29 ft | 17 kts | 33° |
| 2026-05-04 17:46 | 55.61738 | 12.64640 | 31 ft | 16 kts | 33° |
| 2026-05-04 17:47 | 55.61839 | 12.64757 | 27 ft | 19 kts | 33° |
| 2026-05-04 17:47 | 55.61963 | 12.64898 | 25 ft | 21 kts | 33° |
| 2026-05-04 17:47 | 55.62057 | 12.65005 | 27 ft | 16 kts | 33° |
| 2026-05-04 17:47 | 55.62136 | 12.65086 | 30 ft | 12 kts | 18° |
| 2026-05-04 17:48 | 55.62193 | 12.65054 | 31 ft | 8 kts | 316° |
| 2026-05-04 17:48 | 55.62232 | 12.64958 | 30 ft | 11 kts | 304° |
| 2026-05-04 17:48 | 55.62274 | 12.64852 | 31 ft | 7 kts | 307° |
| 2026-05-04 17:48 | 55.62314 | 12.64785 | 30 ft | 9 kts | 339° |
| 2026-05-04 17:49 | 55.62392 | 12.64780 | 29 ft | 13 kts | 358° |
| 2026-05-04 17:49 | 55.62487 | 12.64774 | 27 ft | 10 kts | 358° |
| 2026-05-04 17:49 | 55.62549 | 12.64813 | 27 ft | 7 kts | 62° |
| 2026-05-04 17:49 | 55.62554 | 12.64882 | 27 ft | 0 kts | 87° |